GCTS/TFS METAR and TAF weather

Enter ICAO airport designator
Station Type Date Time Source
GCTS METAR 2019/08/24 09:00 UTC NOAA

GCTS 240900Z 00000KT CAVOK 23/21 Q1014 NOSIG


Station Type Date Time Source
GCTS Decoded METAR 2019/08/24 09:00 UTC NOAA

Station name not available
Aug 24, 2019 - 05:00 AM EDT / 2019.08.24 0900 UTC
Wind: Calm:0
Visibility: greater than 7 mile(s):0
Temperature: 73 F (23 C)
Dew Point: 69 F (21 C)
Relative Humidity: 88%
Pressure (altimeter): 29.94 in. Hg (1014 hPa)
ob: GCTS 240900Z 00000KT CAVOK 23/21 Q1014 NOSIG
cycle: 9

Station Type Date Time Source
GCTS TAF 2019/08/24 09:27 UTC NOAA

TAF GCTS 240800Z 2409/2509 08024KT CAVOK TX32/2414Z TN25/2505Z
TEMPO 2409/2411 22006KT PROB40
TEMPO 2411/2418 08024G34KT

Example: see airport list